sensor_id;sensor_type;location;lat;lon;timestamp;P1;durP1;ratioP1;P2;durP2;ratioP2
72125;SDS011;59999;51.676;22.650;2022-11-03T00:01:11;29.48;;;13.05;;
72125;SDS011;59999;51.676;22.650;2022-11-03T00:03:37;33.28;;;13.15;;
72125;SDS011;59999;51.676;22.650;2022-11-03T00:06:03;31.67;;;12.37;;
72125;SDS011;59999;51.676;22.650;2022-11-03T00:08:38;26.13;;;12.63;;
72125;SDS011;59999;51.676;22.650;2022-11-03T00:13:33;28.90;;;12.25;;
72125;SDS011;59999;51.676;22.650;2022-11-03T00:16:01;30.17;;;12.77;;
72125;SDS011;59999;51.676;22.650;2022-11-03T00:18:27;30.93;;;12.77;;
72125;SDS011;59999;51.676;22.650;2022-11-03T00:21:00;27.38;;;12.38;;
72125;SDS011;59999;51.676;22.650;2022-11-03T00:23:28;27.50;;;11.48;;
72125;SDS011;59999;51.676;22.650;2022-11-03T00:26:05;29.05;;;12.63;;
72125;SDS011;59999;51.676;22.650;2022-11-03T00:28:39;30.55;;;12.38;;
72125;SDS011;59999;51.676;22.650;2022-11-03T00:31:11;33.60;;;14.00;;
72125;SDS011;59999;51.676;22.650;2022-11-03T00:33:39;28.40;;;12.52;;
72125;SDS011;59999;51.676;22.650;2022-11-03T00:36:06;34.95;;;13.48;;
72125;SDS011;59999;51.676;22.650;2022-11-03T00:38:34;32.00;;;12.55;;
72125;SDS011;59999;51.676;22.650;2022-11-03T00:41:03;33.80;;;13.07;;
72125;SDS011;59999;51.676;22.650;2022-11-03T00:43:30;27.80;;;12.90;;
72125;SDS011;59999;51.676;22.650;2022-11-03T00:45:57;30.33;;;13.05;;
72125;SDS011;59999;51.676;22.650;2022-11-03T00:48:24;29.90;;;12.20;;
72125;SDS011;59999;51.676;22.650;2022-11-03T00:51:00;27.48;;;11.40;;
72125;SDS011;59999;51.676;22.650;2022-11-03T00:53:27;24.73;;;11.43;;
72125;SDS011;59999;51.676;22.650;2022-11-03T00:55:54;31.87;;;11.90;;
72125;SDS011;59999;51.676;22.650;2022-11-03T00:58:20;26.88;;;11.63;;
72125;SDS011;59999;51.676;22.650;2022-11-03T01:00:46;32.83;;;12.80;;
72125;SDS011;59999;51.676;22.650;2022-11-03T01:03:12;29.35;;;12.15;;
72125;SDS011;59999;51.676;22.650;2022-11-03T01:05:39;25.53;;;11.57;;
72125;SDS011;59999;51.676;22.650;2022-11-03T01:08:24;29.55;;;11.43;;
72125;SDS011;59999;51.676;22.650;2022-11-03T01:10:50;26.27;;;11.23;;
72125;SDS011;59999;51.676;22.650;2022-11-03T01:13:35;29.98;;;11.32;;
72125;SDS011;59999;51.676;22.650;2022-11-03T01:16:03;26.07;;;10.60;;
72125;SDS011;59999;51.676;22.650;2022-11-03T01:18:30;29.88;;;11.90;;
72125;SDS011;59999;51.676;22.650;2022-11-03T01:20:56;33.95;;;12.63;;
72125;SDS011;59999;51.676;22.650;2022-11-03T01:23:22;30.83;;;11.48;;
72125;SDS011;59999;51.676;22.650;2022-11-03T01:25:49;28.20;;;11.70;;
72125;SDS011;59999;51.676;22.650;2022-11-03T01:28:15;26.17;;;11.38;;
72125;SDS011;59999;51.676;22.650;2022-11-03T01:30:41;29.23;;;11.18;;
72125;SDS011;59999;51.676;22.650;2022-11-03T01:33:07;26.60;;;10.75;;
72125;SDS011;59999;51.676;22.650;2022-11-03T01:35:33;26.20;;;10.63;;
72125;SDS011;59999;51.676;22.650;2022-11-03T01:37:59;24.25;;;9.95;;
72125;SDS011;59999;51.676;22.650;2022-11-03T01:40:25;25.60;;;10.30;;
72125;SDS011;59999;51.676;22.650;2022-11-03T01:42:51;26.10;;;10.43;;
72125;SDS011;59999;51.676;22.650;2022-11-03T01:45:17;24.13;;;10.40;;
72125;SDS011;59999;51.676;22.650;2022-11-03T01:47:42;27.58;;;10.85;;
72125;SDS011;59999;51.676;22.650;2022-11-03T01:50:11;27.57;;;10.50;;
72125;SDS011;59999;51.676;22.650;2022-11-03T01:52:41;24.10;;;9.88;;
72125;SDS011;59999;51.676;22.650;2022-11-03T01:55:14;25.55;;;10.10;;
72125;SDS011;59999;51.676;22.650;2022-11-03T01:58:05;21.35;;;9.38;;
72125;SDS011;59999;51.676;22.650;2022-11-03T02:00:30;24.30;;;10.27;;
72125;SDS011;59999;51.676;22.650;2022-11-03T02:02:56;24.77;;;9.43;;
72125;SDS011;59999;51.676;22.650;2022-11-03T02:05:23;23.30;;;9.68;;
72125;SDS011;59999;51.676;22.650;2022-11-03T02:07:55;24.48;;;9.48;;
72125;SDS011;59999;51.676;22.650;2022-11-03T02:10:26;24.63;;;9.52;;
72125;SDS011;59999;51.676;22.650;2022-11-03T02:12:52;23.93;;;8.97;;
72125;SDS011;59999;51.676;22.650;2022-11-03T02:15:19;24.73;;;9.20;;
72125;SDS011;59999;51.676;22.650;2022-11-03T02:17:46;22.73;;;8.80;;
72125;SDS011;59999;51.676;22.650;2022-11-03T02:20:17;23.48;;;8.88;;
72125;SDS011;59999;51.676;22.650;2022-11-03T02:25:45;19.95;;;8.80;;
72125;SDS011;59999;51.676;22.650;2022-11-03T02:28:14;27.10;;;9.88;;
72125;SDS011;59999;51.676;22.650;2022-11-03T02:33:27;20.75;;;8.70;;
72125;SDS011;59999;51.676;22.650;2022-11-03T02:38:44;24.77;;;9.02;;
72125;SDS011;59999;51.676;22.650;2022-11-03T02:41:13;21.05;;;8.77;;
72125;SDS011;59999;51.676;22.650;2022-11-03T02:43:42;23.63;;;7.93;;
72125;SDS011;59999;51.676;22.650;2022-11-03T02:46:10;26.50;;;9.57;;
72125;SDS011;59999;51.676;22.650;2022-11-03T02:48:38;20.23;;;6.72;;
72125;SDS011;59999;51.676;22.650;2022-11-03T02:51:04;23.10;;;7.93;;
72125;SDS011;59999;51.676;22.650;2022-11-03T02:53:30;20.90;;;7.63;;
72125;SDS011;59999;51.676;22.650;2022-11-03T02:56:15;23.25;;;9.45;;
72125;SDS011;59999;51.676;22.650;2022-11-03T02:58:59;24.88;;;9.02;;
72125;SDS011;59999;51.676;22.650;2022-11-03T03:01:37;27.53;;;8.80;;
72125;SDS011;59999;51.676;22.650;2022-11-03T03:04:17;22.88;;;9.73;;
72125;SDS011;59999;51.676;22.650;2022-11-03T03:06:56;23.73;;;8.70;;
72125;SDS011;59999;51.676;22.650;2022-11-03T03:09:28;29.00;;;9.00;;
72125;SDS011;59999;51.676;22.650;2022-11-03T03:12:00;20.58;;;8.90;;
72125;SDS011;59999;51.676;22.650;2022-11-03T03:14:33;21.53;;;8.47;;
72125;SDS011;59999;51.676;22.650;2022-11-03T03:17:17;20.10;;;7.70;;
72125;SDS011;59999;51.676;22.650;2022-11-03T03:22:28;24.88;;;9.98;;
72125;SDS011;59999;51.676;22.650;2022-11-03T03:27:42;24.53;;;8.43;;
72125;SDS011;59999;51.676;22.650;2022-11-03T03:30:13;25.40;;;8.93;;
72125;SDS011;59999;51.676;22.650;2022-11-03T03:32:42;25.30;;;8.40;;
72125;SDS011;59999;51.676;22.650;2022-11-03T03:35:12;20.98;;;8.15;;
72125;SDS011;59999;51.676;22.650;2022-11-03T03:37:44;25.35;;;7.97;;
72125;SDS011;59999;51.676;22.650;2022-11-03T03:40:15;20.43;;;7.77;;
72125;SDS011;59999;51.676;22.650;2022-11-03T03:42:45;24.42;;;7.30;;
72125;SDS011;59999;51.676;22.650;2022-11-03T03:45:12;18.48;;;6.80;;
72125;SDS011;59999;51.676;22.650;2022-11-03T03:47:40;20.48;;;7.75;;
72125;SDS011;59999;51.676;22.650;2022-11-03T03:50:06;20.70;;;7.23;;
72125;SDS011;59999;51.676;22.650;2022-11-03T03:52:32;22.50;;;7.30;;
72125;SDS011;59999;51.676;22.650;2022-11-03T03:54:59;15.85;;;6.45;;
72125;SDS011;59999;51.676;22.650;2022-11-03T03:57:25;19.00;;;6.85;;
72125;SDS011;59999;51.676;22.650;2022-11-03T03:59:54;20.95;;;7.00;;
72125;SDS011;59999;51.676;22.650;2022-11-03T04:02:20;23.40;;;7.20;;
72125;SDS011;59999;51.676;22.650;2022-11-03T04:04:46;26.33;;;7.80;;
72125;SDS011;59999;51.676;22.650;2022-11-03T04:07:12;18.50;;;6.38;;
72125;SDS011;59999;51.676;22.650;2022-11-03T04:09:57;19.85;;;7.30;;
72125;SDS011;59999;51.676;22.650;2022-11-03T04:12:22;17.88;;;6.95;;
72125;SDS011;59999;51.676;22.650;2022-11-03T04:15:09;16.95;;;5.90;;
72125;SDS011;59999;51.676;22.650;2022-11-03T04:17:57;15.55;;;6.32;;
72125;SDS011;59999;51.676;22.650;2022-11-03T04:20:42;21.55;;;6.57;;
72125;SDS011;59999;51.676;22.650;2022-11-03T04:23:26;16.13;;;6.20;;
72125;SDS011;59999;51.676;22.650;2022-11-03T04:25:53;21.33;;;6.07;;
72125;SDS011;59999;51.676;22.650;2022-11-03T04:28:20;17.65;;;6.45;;
72125;SDS011;59999;51.676;22.650;2022-11-03T04:30:47;17.70;;;6.60;;
72125;SDS011;59999;51.676;22.650;2022-11-03T04:33:13;19.37;;;6.43;;
72125;SDS011;59999;51.676;22.650;2022-11-03T04:35:41;14.18;;;5.43;;
72125;SDS011;59999;51.676;22.650;2022-11-03T04:40:40;18.75;;;6.40;;
72125;SDS011;59999;51.676;22.650;2022-11-03T04:43:09;15.55;;;5.65;;
72125;SDS011;59999;51.676;22.650;2022-11-03T04:45:38;16.65;;;5.82;;
72125;SDS011;59999;51.676;22.650;2022-11-03T04:48:18;17.75;;;5.72;;
72125;SDS011;59999;51.676;22.650;2022-11-03T04:50:47;15.43;;;6.38;;
72125;SDS011;59999;51.676;22.650;2022-11-03T04:53:15;20.65;;;6.78;;
72125;SDS011;59999;51.676;22.650;2022-11-03T04:55:43;15.20;;;5.80;;
72125;SDS011;59999;51.676;22.650;2022-11-03T04:58:28;17.48;;;5.90;;
72125;SDS011;59999;51.676;22.650;2022-11-03T05:00:59;18.23;;;5.43;;
72125;SDS011;59999;51.676;22.650;2022-11-03T05:03:28;12.68;;;5.03;;
72125;SDS011;59999;51.676;22.650;2022-11-03T05:05:56;16.92;;;5.70;;
72125;SDS011;59999;51.676;22.650;2022-11-03T05:08:23;15.20;;;5.60;;
72125;SDS011;59999;51.676;22.650;2022-11-03T05:10:49;18.05;;;6.05;;
72125;SDS011;59999;51.676;22.650;2022-11-03T05:13:16;14.23;;;4.90;;
72125;SDS011;59999;51.676;22.650;2022-11-03T05:15:46;15.15;;;5.57;;
72125;SDS011;59999;51.676;22.650;2022-11-03T05:18:28;17.65;;;5.20;;
72125;SDS011;59999;51.676;22.650;2022-11-03T05:20:58;17.65;;;6.32;;
72125;SDS011;59999;51.676;22.650;2022-11-03T05:23:28;15.73;;;5.20;;
72125;SDS011;59999;51.676;22.650;2022-11-03T05:26:01;18.30;;;6.00;;
72125;SDS011;59999;51.676;22.650;2022-11-03T05:28:31;19.20;;;6.40;;
72125;SDS011;59999;51.676;22.650;2022-11-03T05:31:00;16.52;;;6.05;;
72125;SDS011;59999;51.676;22.650;2022-11-03T05:33:31;15.75;;;5.72;;
72125;SDS011;59999;51.676;22.650;2022-11-03T05:36:09;17.27;;;5.75;;
72125;SDS011;59999;51.676;22.650;2022-11-03T05:38:38;15.43;;;6.00;;
72125;SDS011;59999;51.676;22.650;2022-11-03T05:41:04;19.63;;;6.72;;
72125;SDS011;59999;51.676;22.650;2022-11-03T05:43:39;19.17;;;6.70;;
72125;SDS011;59999;51.676;22.650;2022-11-03T05:46:07;16.13;;;6.22;;
72125;SDS011;59999;51.676;22.650;2022-11-03T05:48:39;15.70;;;5.78;;
72125;SDS011;59999;51.676;22.650;2022-11-03T05:51:50;17.42;;;6.30;;
72125;SDS011;59999;51.676;22.650;2022-11-03T05:54:00;18.25;;;6.07;;
72125;SDS011;59999;51.676;22.650;2022-11-03T05:56:29;15.23;;;5.75;;
72125;SDS011;59999;51.676;22.650;2022-11-03T05:58:57;18.10;;;5.82;;
72125;SDS011;59999;51.676;22.650;2022-11-03T06:01:28;19.58;;;6.32;;
72125;SDS011;59999;51.676;22.650;2022-11-03T06:04:25;22.08;;;6.32;;
72125;SDS011;59999;51.676;22.650;2022-11-03T06:07:22;17.10;;;5.95;;
72125;SDS011;59999;51.676;22.650;2022-11-03T06:09:51;17.05;;;6.50;;
72125;SDS011;59999;51.676;22.650;2022-11-03T06:12:18;19.38;;;6.25;;
72125;SDS011;59999;51.676;22.650;2022-11-03T06:14:46;15.57;;;6.55;;
72125;SDS011;59999;51.676;22.650;2022-11-03T06:17:23;16.52;;;6.50;;
72125;SDS011;59999;51.676;22.650;2022-11-03T06:19:54;17.55;;;6.72;;
72125;SDS011;59999;51.676;22.650;2022-11-03T06:25:09;17.95;;;7.55;;
72125;SDS011;59999;51.676;22.650;2022-11-03T06:27:50;20.88;;;7.20;;
72125;SDS011;59999;51.676;22.650;2022-11-03T06:32:52;19.35;;;7.13;;
72125;SDS011;59999;51.676;22.650;2022-11-03T06:35:22;18.17;;;7.07;;
72125;SDS011;59999;51.676;22.650;2022-11-03T06:37:48;20.23;;;7.53;;
72125;SDS011;59999;51.676;22.650;2022-11-03T06:42:40;21.30;;;7.63;;
72125;SDS011;59999;51.676;22.650;2022-11-03T06:45:13;22.50;;;7.45;;
72125;SDS011;59999;51.676;22.650;2022-11-03T06:47:43;23.65;;;7.68;;
72125;SDS011;59999;51.676;22.650;2022-11-03T06:50:23;20.35;;;7.80;;
72125;SDS011;59999;51.676;22.650;2022-11-03T06:52:52;19.10;;;7.17;;
72125;SDS011;59999;51.676;22.650;2022-11-03T06:55:26;24.10;;;8.38;;
72125;SDS011;59999;51.676;22.650;2022-11-03T06:57:54;19.45;;;7.95;;
72125;SDS011;59999;51.676;22.650;2022-11-03T07:00:25;26.10;;;8.32;;
72125;SDS011;59999;51.676;22.650;2022-11-03T07:02:54;24.15;;;9.15;;
72125;SDS011;59999;51.676;22.650;2022-11-03T07:05:22;20.60;;;8.67;;
72125;SDS011;59999;51.676;22.650;2022-11-03T07:07:57;18.05;;;7.00;;
72125;SDS011;59999;51.676;22.650;2022-11-03T07:10:32;22.02;;;8.75;;
72125;SDS011;59999;51.676;22.650;2022-11-03T07:12:59;20.77;;;9.60;;
72125;SDS011;59999;51.676;22.650;2022-11-03T07:15:32;15.70;;;7.25;;
72125;SDS011;59999;51.676;22.650;2022-11-03T07:18:02;17.43;;;7.27;;
72125;SDS011;59999;51.676;22.650;2022-11-03T07:20:37;16.85;;;7.22;;
72125;SDS011;59999;51.676;22.650;2022-11-03T07:23:04;18.23;;;7.00;;
72125;SDS011;59999;51.676;22.650;2022-11-03T07:25:34;17.73;;;7.10;;
72125;SDS011;59999;51.676;22.650;2022-11-03T07:28:00;18.33;;;7.55;;
72125;SDS011;59999;51.676;22.650;2022-11-03T07:30:29;16.93;;;7.13;;
72125;SDS011;59999;51.676;22.650;2022-11-03T07:33:13;17.42;;;6.40;;
72125;SDS011;59999;51.676;22.650;2022-11-03T07:35:46;16.35;;;6.05;;
72125;SDS011;59999;51.676;22.650;2022-11-03T07:38:17;17.33;;;6.32;;
72125;SDS011;59999;51.676;22.650;2022-11-03T07:40:45;16.73;;;6.43;;
72125;SDS011;59999;51.676;22.650;2022-11-03T07:43:18;16.13;;;5.77;;
72125;SDS011;59999;51.676;22.650;2022-11-03T07:45:52;15.75;;;5.80;;
72125;SDS011;59999;51.676;22.650;2022-11-03T07:48:41;25.67;;;6.95;;
72125;SDS011;59999;51.676;22.650;2022-11-03T07:53:49;15.68;;;4.70;;
72125;SDS011;59999;51.676;22.650;2022-11-03T07:56:21;14.07;;;5.13;;
72125;SDS011;59999;51.676;22.650;2022-11-03T07:58:54;14.55;;;5.05;;
72125;SDS011;59999;51.676;22.650;2022-11-03T08:01:26;16.35;;;5.32;;
72125;SDS011;59999;51.676;22.650;2022-11-03T08:03:56;15.35;;;5.15;;
72125;SDS011;59999;51.676;22.650;2022-11-03T08:06:24;15.52;;;4.80;;
72125;SDS011;59999;51.676;22.650;2022-11-03T08:08:51;12.40;;;4.20;;
72125;SDS011;59999;51.676;22.650;2022-11-03T08:11:17;12.57;;;4.60;;
72125;SDS011;59999;51.676;22.650;2022-11-03T08:13:43;10.52;;;4.28;;
72125;SDS011;59999;51.676;22.650;2022-11-03T08:16:09;11.70;;;4.07;;
72125;SDS011;59999;51.676;22.650;2022-11-03T08:18:35;14.80;;;4.80;;
72125;SDS011;59999;51.676;22.650;2022-11-03T08:21:01;14.75;;;4.40;;
72125;SDS011;59999;51.676;22.650;2022-11-03T08:23:27;13.88;;;3.85;;
72125;SDS011;59999;51.676;22.650;2022-11-03T08:25:53;10.55;;;3.70;;
72125;SDS011;59999;51.676;22.650;2022-11-03T08:28:20;11.37;;;4.10;;
72125;SDS011;59999;51.676;22.650;2022-11-03T08:30:46;19.77;;;5.18;;
72125;SDS011;59999;51.676;22.650;2022-11-03T08:33:12;12.57;;;3.92;;
72125;SDS011;59999;51.676;22.650;2022-11-03T08:35:38;11.23;;;4.00;;
72125;SDS011;59999;51.676;22.650;2022-11-03T08:38:04;14.40;;;3.47;;
72125;SDS011;59999;51.676;22.650;2022-11-03T08:40:30;12.40;;;3.30;;
72125;SDS011;59999;51.676;22.650;2022-11-03T08:42:56;10.60;;;3.63;;
72125;SDS011;59999;51.676;22.650;2022-11-03T08:45:21;13.47;;;4.33;;
72125;SDS011;59999;51.676;22.650;2022-11-03T08:47:48;14.50;;;3.85;;
72125;SDS011;59999;51.676;22.650;2022-11-03T08:50:14;12.13;;;3.72;;
72125;SDS011;59999;51.676;22.650;2022-11-03T08:52:40;12.15;;;3.08;;
72125;SDS011;59999;51.676;22.650;2022-11-03T08:55:06;10.63;;;3.53;;
72125;SDS011;59999;51.676;22.650;2022-11-03T08:57:33;13.43;;;4.07;;
72125;SDS011;59999;51.676;22.650;2022-11-03T08:59:59;9.07;;;3.23;;
72125;SDS011;59999;51.676;22.650;2022-11-03T09:02:25;13.43;;;3.90;;
72125;SDS011;59999;51.676;22.650;2022-11-03T09:04:51;14.63;;;3.80;;
72125;SDS011;59999;51.676;22.650;2022-11-03T09:07:17;17.08;;;5.30;;
72125;SDS011;59999;51.676;22.650;2022-11-03T09:09:42;10.43;;;3.80;;
72125;SDS011;59999;51.676;22.650;2022-11-03T09:12:08;9.45;;;3.58;;
72125;SDS011;59999;51.676;22.650;2022-11-03T09:14:34;14.98;;;4.28;;
72125;SDS011;59999;51.676;22.650;2022-11-03T09:17:00;14.40;;;3.60;;
72125;SDS011;59999;51.676;22.650;2022-11-03T09:19:26;11.80;;;3.80;;
72125;SDS011;59999;51.676;22.650;2022-11-03T09:21:52;12.80;;;4.20;;
72125;SDS011;59999;51.676;22.650;2022-11-03T09:24:18;17.77;;;4.25;;
72125;SDS011;59999;51.676;22.650;2022-11-03T09:26:44;11.65;;;4.03;;
72125;SDS011;59999;51.676;22.650;2022-11-03T09:29:10;10.82;;;3.78;;
72125;SDS011;59999;51.676;22.650;2022-11-03T09:31:36;12.43;;;4.10;;
72125;SDS011;59999;51.676;22.650;2022-11-03T09:34:02;12.18;;;4.03;;
72125;SDS011;59999;51.676;22.650;2022-11-03T09:36:28;11.17;;;3.70;;
72125;SDS011;59999;51.676;22.650;2022-11-03T09:38:54;12.90;;;3.70;;
72125;SDS011;59999;51.676;22.650;2022-11-03T09:41:19;10.82;;;3.65;;
72125;SDS011;59999;51.676;22.650;2022-11-03T09:43:46;11.07;;;3.97;;
72125;SDS011;59999;51.676;22.650;2022-11-03T09:46:13;10.07;;;3.65;;
72125;SDS011;59999;51.676;22.650;2022-11-03T09:48:40;8.90;;;2.93;;
72125;SDS011;59999;51.676;22.650;2022-11-03T09:51:08;12.23;;;4.00;;
72125;SDS011;59999;51.676;22.650;2022-11-03T09:53:39;11.63;;;3.78;;
72125;SDS011;59999;51.676;22.650;2022-11-03T09:56:07;10.32;;;3.17;;
72125;SDS011;59999;51.676;22.650;2022-11-03T09:58:35;9.82;;;3.60;;
72125;SDS011;59999;51.676;22.650;2022-11-03T10:01:01;14.70;;;3.37;;
72125;SDS011;59999;51.676;22.650;2022-11-03T10:03:28;10.43;;;3.28;;
72125;SDS011;59999;51.676;22.650;2022-11-03T10:05:54;10.40;;;3.15;;
72125;SDS011;59999;51.676;22.650;2022-11-03T10:08:28;9.73;;;3.33;;
72125;SDS011;59999;51.676;22.650;2022-11-03T10:10:56;6.93;;;2.38;;
72125;SDS011;59999;51.676;22.650;2022-11-03T10:13:33;12.37;;;4.67;;
72125;SDS011;59999;51.676;22.650;2022-11-03T10:16:09;10.77;;;3.03;;
72125;SDS011;59999;51.676;22.650;2022-11-03T10:18:39;9.02;;;2.97;;
72125;SDS011;59999;51.676;22.650;2022-11-03T10:21:08;11.00;;;3.42;;
72125;SDS011;59999;51.676;22.650;2022-11-03T10:23:54;11.98;;;4.72;;
72125;SDS011;59999;51.676;22.650;2022-11-03T10:26:20;11.87;;;3.10;;
72125;SDS011;59999;51.676;22.650;2022-11-03T10:31:42;10.82;;;4.10;;
72125;SDS011;59999;51.676;22.650;2022-11-03T10:39:47;13.43;;;3.20;;
72125;SDS011;59999;51.676;22.650;2022-11-03T10:42:19;9.82;;;2.83;;
72125;SDS011;59999;51.676;22.650;2022-11-03T10:45:13;9.85;;;2.83;;
72125;SDS011;59999;51.676;22.650;2022-11-03T10:47:42;11.73;;;2.70;;
72125;SDS011;59999;51.676;22.650;2022-11-03T10:50:27;9.35;;;2.53;;
72125;SDS011;59999;51.676;22.650;2022-11-03T10:52:53;7.53;;;2.20;;
72125;SDS011;59999;51.676;22.650;2022-11-03T10:55:20;10.48;;;3.15;;
72125;SDS011;59999;51.676;22.650;2022-11-03T10:57:48;12.95;;;4.50;;
72125;SDS011;59999;51.676;22.650;2022-11-03T11:00:17;8.90;;;2.75;;
72125;SDS011;59999;51.676;22.650;2022-11-03T11:02:47;8.77;;;2.95;;
72125;SDS011;59999;51.676;22.650;2022-11-03T11:05:18;8.73;;;2.37;;
72125;SDS011;59999;51.676;22.650;2022-11-03T11:07:46;6.82;;;2.38;;
72125;SDS011;59999;51.676;22.650;2022-11-03T11:10:16;10.63;;;2.78;;
72125;SDS011;59999;51.676;22.650;2022-11-03T11:13:01;9.40;;;2.40;;
72125;SDS011;59999;51.676;22.650;2022-11-03T11:18:04;15.23;;;3.30;;
72125;SDS011;59999;51.676;22.650;2022-11-03T11:20:31;7.03;;;2.10;;
72125;SDS011;59999;51.676;22.650;2022-11-03T11:31:36;10.52;;;1.95;;
72125;SDS011;59999;51.676;22.650;2022-11-03T11:36:37;10.57;;;2.47;;
72125;SDS011;59999;51.676;22.650;2022-11-03T11:47:31;7.20;;;1.60;;
72125;SDS011;59999;51.676;22.650;2022-11-03T11:50:11;9.27;;;1.85;;
72125;SDS011;59999;51.676;22.650;2022-11-03T11:55:31;6.13;;;1.73;;
72125;SDS011;59999;51.676;22.650;2022-11-03T11:58:05;7.55;;;1.50;;
72125;SDS011;59999;51.676;22.650;2022-11-03T12:00:50;11.23;;;2.15;;
72125;SDS011;59999;51.676;22.650;2022-11-03T12:03:21;7.15;;;1.98;;
72125;SDS011;59999;51.676;22.650;2022-11-03T12:05:51;10.93;;;1.65;;
72125;SDS011;59999;51.676;22.650;2022-11-03T12:08:24;6.77;;;1.60;;
72125;SDS011;59999;51.676;22.650;2022-11-03T12:10:54;8.93;;;1.60;;
72125;SDS011;59999;51.676;22.650;2022-11-03T12:16:10;9.27;;;1.95;;
72125;SDS011;59999;51.676;22.650;2022-11-03T12:18:52;8.37;;;1.77;;
72125;SDS011;59999;51.676;22.650;2022-11-03T12:26:53;7.35;;;1.40;;
72125;SDS011;59999;51.676;22.650;2022-11-03T12:29:19;8.40;;;1.83;;
72125;SDS011;59999;51.676;22.650;2022-11-03T12:31:45;5.73;;;1.70;;
72125;SDS011;59999;51.676;22.650;2022-11-03T12:34:12;7.95;;;1.70;;
72125;SDS011;59999;51.676;22.650;2022-11-03T12:36:38;4.90;;;1.27;;
72125;SDS011;59999;51.676;22.650;2022-11-03T12:39:03;9.10;;;1.67;;
72125;SDS011;59999;51.676;22.650;2022-11-03T12:41:30;8.30;;;1.55;;
72125;SDS011;59999;51.676;22.650;2022-11-03T12:43:55;6.35;;;1.50;;
72125;SDS011;59999;51.676;22.650;2022-11-03T12:46:21;9.07;;;1.80;;
72125;SDS011;59999;51.676;22.650;2022-11-03T12:48:48;6.93;;;1.88;;
72125;SDS011;59999;51.676;22.650;2022-11-03T12:51:15;25.30;;;7.45;;
72125;SDS011;59999;51.676;22.650;2022-11-03T12:53:43;143.07;;;41.42;;
72125;SDS011;59999;51.676;22.650;2022-11-03T12:56:09;153.97;;;43.93;;
72125;SDS011;59999;51.676;22.650;2022-11-03T12:58:36;89.45;;;24.65;;
72125;SDS011;59999;51.676;22.650;2022-11-03T13:01:03;165.13;;;46.65;;
72125;SDS011;59999;51.676;22.650;2022-11-03T13:03:30;103.18;;;29.92;;
72125;SDS011;59999;51.676;22.650;2022-11-03T13:05:57;148.00;;;41.97;;
72125;SDS011;59999;51.676;22.650;2022-11-03T13:08:24;77.73;;;23.13;;
72125;SDS011;59999;51.676;22.650;2022-11-03T13:10:50;40.17;;;11.73;;
72125;SDS011;59999;51.676;22.650;2022-11-03T13:13:16;34.40;;;9.40;;
72125;SDS011;59999;51.676;22.650;2022-11-03T13:15:43;76.07;;;21.23;;
72125;SDS011;59999;51.676;22.650;2022-11-03T13:18:09;39.73;;;10.13;;
72125;SDS011;59999;51.676;22.650;2022-11-03T13:20:36;34.95;;;8.82;;
72125;SDS011;59999;51.676;22.650;2022-11-03T13:23:02;61.50;;;18.17;;
72125;SDS011;59999;51.676;22.650;2022-11-03T13:25:29;168.23;;;52.28;;
72125;SDS011;59999;51.676;22.650;2022-11-03T13:27:55;179.07;;;59.92;;
72125;SDS011;59999;51.676;22.650;2022-11-03T13:30:22;65.83;;;23.20;;
72125;SDS011;59999;51.676;22.650;2022-11-03T13:32:49;21.83;;;6.60;;
72125;SDS011;59999;51.676;22.650;2022-11-03T13:35:15;11.45;;;2.67;;
72125;SDS011;59999;51.676;22.650;2022-11-03T13:37:41;9.07;;;1.92;;
72125;SDS011;59999;51.676;22.650;2022-11-03T13:40:09;10.57;;;2.22;;
72125;SDS011;59999;51.676;22.650;2022-11-03T13:42:37;8.23;;;2.13;;
72125;SDS011;59999;51.676;22.650;2022-11-03T13:45:03;8.15;;;1.90;;
72125;SDS011;59999;51.676;22.650;2022-11-03T13:47:29;9.32;;;2.67;;
72125;SDS011;59999;51.676;22.650;2022-11-03T13:49:55;8.48;;;2.10;;
72125;SDS011;59999;51.676;22.650;2022-11-03T13:52:22;10.40;;;1.73;;
72125;SDS011;59999;51.676;22.650;2022-11-03T13:54:49;7.30;;;1.83;;
72125;SDS011;59999;51.676;22.650;2022-11-03T13:57:16;9.55;;;1.80;;
72125;SDS011;59999;51.676;22.650;2022-11-03T13:59:43;7.55;;;1.70;;
72125;SDS011;59999;51.676;22.650;2022-11-03T14:02:09;9.82;;;2.20;;
72125;SDS011;59999;51.676;22.650;2022-11-03T14:04:37;8.10;;;2.10;;
72125;SDS011;59999;51.676;22.650;2022-11-03T14:07:04;8.77;;;2.33;;
72125;SDS011;59999;51.676;22.650;2022-11-03T14:09:30;8.80;;;2.15;;
72125;SDS011;59999;51.676;22.650;2022-11-03T14:11:57;11.20;;;2.10;;
72125;SDS011;59999;51.676;22.650;2022-11-03T14:14:41;9.55;;;2.65;;
72125;SDS011;59999;51.676;22.650;2022-11-03T14:17:08;10.75;;;2.65;;
72125;SDS011;59999;51.676;22.650;2022-11-03T14:19:33;9.70;;;2.50;;
72125;SDS011;59999;51.676;22.650;2022-11-03T14:22:00;9.95;;;2.97;;
72125;SDS011;59999;51.676;22.650;2022-11-03T14:24:26;7.25;;;2.50;;
72125;SDS011;59999;51.676;22.650;2022-11-03T14:26:52;7.83;;;2.70;;
72125;SDS011;59999;51.676;22.650;2022-11-03T14:29:18;9.45;;;2.75;;
72125;SDS011;59999;51.676;22.650;2022-11-03T14:31:44;8.50;;;2.53;;
72125;SDS011;59999;51.676;22.650;2022-11-03T14:34:10;8.13;;;2.47;;
72125;SDS011;59999;51.676;22.650;2022-11-03T14:36:36;9.97;;;2.77;;
72125;SDS011;59999;51.676;22.650;2022-11-03T14:39:02;13.00;;;4.00;;
72125;SDS011;59999;51.676;22.650;2022-11-03T14:41:28;10.18;;;2.42;;
72125;SDS011;59999;51.676;22.650;2022-11-03T14:44:13;8.73;;;2.40;;
72125;SDS011;59999;51.676;22.650;2022-11-03T14:46:39;10.18;;;2.67;;
72125;SDS011;59999;51.676;22.650;2022-11-03T14:49:04;11.50;;;3.23;;
72125;SDS011;59999;51.676;22.650;2022-11-03T14:51:30;9.07;;;3.38;;
72125;SDS011;59999;51.676;22.650;2022-11-03T14:53:57;11.20;;;4.50;;
72125;SDS011;59999;51.676;22.650;2022-11-03T14:56:23;13.00;;;2.83;;
72125;SDS011;59999;51.676;22.650;2022-11-03T14:58:49;9.27;;;3.28;;
72125;SDS011;59999;51.676;22.650;2022-11-03T15:01:16;8.95;;;2.85;;
72125;SDS011;59999;51.676;22.650;2022-11-03T15:03:43;92.22;;;29.25;;
72125;SDS011;59999;51.676;22.650;2022-11-03T15:06:09;104.83;;;36.33;;
72125;SDS011;59999;51.676;22.650;2022-11-03T15:08:36;124.05;;;43.58;;
72125;SDS011;59999;51.676;22.650;2022-11-03T15:11:03;106.05;;;38.13;;
72125;SDS011;59999;51.676;22.650;2022-11-03T15:13:32;82.55;;;28.80;;
72125;SDS011;59999;51.676;22.650;2022-11-03T15:15:58;74.55;;;24.67;;
72125;SDS011;59999;51.676;22.650;2022-11-03T15:18:24;59.80;;;19.80;;
72125;SDS011;59999;51.676;22.650;2022-11-03T15:20:50;41.85;;;13.20;;
72125;SDS011;59999;51.676;22.650;2022-11-03T15:23:16;28.45;;;9.98;;
72125;SDS011;59999;51.676;22.650;2022-11-03T15:25:42;35.57;;;11.03;;
72125;SDS011;59999;51.676;22.650;2022-11-03T15:28:08;25.75;;;9.70;;
72125;SDS011;59999;51.676;22.650;2022-11-03T15:30:36;22.25;;;7.80;;
72125;SDS011;59999;51.676;22.650;2022-11-03T15:33:02;22.45;;;9.50;;
72125;SDS011;59999;51.676;22.650;2022-11-03T15:35:29;24.33;;;10.67;;
72125;SDS011;59999;51.676;22.650;2022-11-03T15:37:54;21.13;;;9.68;;
72125;SDS011;59999;51.676;22.650;2022-11-03T15:40:23;20.48;;;8.02;;
72125;SDS011;59999;51.676;22.650;2022-11-03T15:42:50;25.83;;;8.57;;
72125;SDS011;59999;51.676;22.650;2022-11-03T15:45:17;25.43;;;10.30;;